Time;durP1;ratioP1;P1;durP2;ratioP2;P2;SDS_P1;SDS_P2;PMS_P1;PMS_P2;Temp;Humidity;BMP_temperature;BMP_pressure;BME280_temperature;BME280_humidity;BME280_pressure;Samples;Min_cycle;Max_cycle;Signal;HPM_P1;HPM_P2
2022/03/27 00:01:40;;;;;;;5.50;3.38;;;6.30;99.90;;;;;;5090486;28;20036;-59
2022/03/27 00:04:06;;;;;;;6.47;3.60;;;6.20;99.90;;;;;;5090645;28;20046;-59
2022/03/27 00:06:31;;;;;;;7.70;3.75;;;6.20;99.90;;;;;;5091271;28;20032;-60
2022/03/27 00:08:57;;;;;;;6.78;3.58;;;6.20;99.90;;;;;;5091893;28;20036;-60
2022/03/27 00:11:26;;;;;;;8.57;3.10;;;6.20;99.90;;;;;;5091489;28;20055;-60
2022/03/27 00:14:05;;;;;;;7.95;2.80;;;6.10;99.90;;;;;;5090538;28;20044;-60
2022/03/27 00:16:32;;;;;;;8.25;3.70;;;6.10;99.90;;;;;;5072924;28;20093;-59
2022/03/27 00:18:58;;;;;;;6.93;3.38;;;6.10;99.90;;;;;;5090593;28;20046;-60
2022/03/27 00:21:24;;;;;;;7.18;4.15;;;6.00;99.90;;;;;;5090712;28;20369;-59
2022/03/27 00:23:52;;;;;;;8.40;4.32;;;6.00;99.90;;;;;;5090815;28;20048;-59
2022/03/27 00:26:18;;;;;;;9.05;3.95;;;6.00;99.90;;;;;;5091832;28;20040;-60
2022/03/27 00:28:44;;;;;;;8.90;3.83;;;5.90;99.90;;;;;;5090489;28;20508;-60
2022/03/27 00:31:11;;;;;;;6.50;4.05;;;6.00;99.90;;;;;;5072796;28;20074;-59
2022/03/27 00:33:38;;;;;;;6.82;4.28;;;6.00;99.90;;;;;;5073741;28;20044;-59
2022/03/27 00:36:05;;;;;;;8.85;3.97;;;6.00;99.90;;;;;;5090743;28;20047;-59
2022/03/27 00:38:32;;;;;;;11.10;4.28;;;6.00;99.90;;;;;;5090808;28;20481;-59
2022/03/27 00:40:59;;;;;;;6.72;3.88;;;6.00;99.90;;;;;;5091276;28;20089;-59
2022/03/27 00:43:26;;;;;;;9.18;4.55;;;6.30;99.90;;;;;;5093939;28;20051;-60
2022/03/27 00:45:51;;;;;;;6.32;3.70;;;6.10;99.90;;;;;;5095055;28;20044;-60
2022/03/27 00:48:19;;;;;;;8.15;3.80;;;6.10;99.90;;;;;;5094373;28;20092;-60
2022/03/27 00:50:51;;;;;;;8.20;4.35;;;6.10;99.90;;;;;;5094092;28;20381;-60
2022/03/27 00:53:17;;;;;;;10.27;5.00;;;6.20;99.90;;;;;;5093164;28;20043;-60
2022/03/27 00:55:46;;;;;;;6.85;3.47;;;6.20;99.90;;;;;;5094033;28;20154;-60
2022/03/27 00:58:13;;;;;;;7.28;3.90;;;6.20;99.90;;;;;;5094939;28;20051;-60
2022/03/27 01:00:39;;;;;;;6.55;4.03;;;6.20;99.90;;;;;;5093946;28;20392;-59
2022/03/27 01:03:11;;;;;;;7.30;3.40;;;6.20;99.90;;;;;;5094022;28;20040;-60
2022/03/27 01:05:37;;;;;;;8.18;3.60;;;6.20;99.90;;;;;;5093892;28;20044;-60
2022/03/27 01:08:05;;;;;;;7.70;3.90;;;6.40;99.90;;;;;;5093699;28;20039;-60
2022/03/27 01:10:32;;;;;;;14.38;4.40;;;6.30;99.90;;;;;;5093863;28;20040;-60
2022/03/27 01:12:58;;;;;;;7.97;3.90;;;6.30;99.90;;;;;;5093145;28;20624;-60
2022/03/27 01:15:29;;;;;;;8.00;4.22;;;6.30;99.90;;;;;;5095006;28;20040;-60
2022/03/27 01:17:55;;;;;;;7.85;3.88;;;6.30;99.90;;;;;;5094746;28;20036;-60
2022/03/27 01:20:33;;;;;;;7.68;4.22;;;6.30;99.90;;;;;;5094027;28;20040;-60
2022/03/27 01:22:59;;;;;;;8.00;4.18;;;6.40;99.90;;;;;;5093184;28;20036;-60
2022/03/27 01:25:25;;;;;;;9.27;4.28;;;6.40;99.90;;;;;;5093424;28;20489;-59
2022/03/27 01:27:51;;;;;;;10.00;4.70;;;6.30;99.90;;;;;;5092816;28;20386;-60
2022/03/27 01:30:17;;;;;;;7.70;4.32;;;6.40;99.90;;;;;;5093509;28;20031;-60
2022/03/27 01:32:43;;;;;;;7.50;4.45;;;6.40;99.90;;;;;;5076285;28;20097;-60
2022/03/27 01:35:10;;;;;;;8.95;4.47;;;6.40;99.90;;;;;;5092490;28;20079;-60
2022/03/27 01:37:36;;;;;;;8.05;4.35;;;6.40;99.90;;;;;;5093747;28;20441;-59
2022/03/27 01:40:02;;;;;;;8.43;5.07;;;6.40;99.90;;;;;;5092773;28;20082;-60
2022/03/27 01:42:28;;;;;;;10.25;4.85;;;6.40;99.90;;;;;;5092303;28;20036;-60
2022/03/27 01:44:54;;;;;;;9.80;4.95;;;6.40;99.90;;;;;;5094301;28;20061;-60
2022/03/27 01:47:19;;;;;;;8.65;4.18;;;6.40;99.90;;;;;;5094050;28;20043;-60
2022/03/27 01:49:45;;;;;;;9.45;4.88;;;6.40;99.90;;;;;;5092247;28;20040;-59
2022/03/27 01:52:11;;;;;;;7.90;4.15;;;6.10;99.90;;;;;;5092593;28;20044;-60
2022/03/27 01:54:37;;;;;;;7.32;4.25;;;6.30;99.90;;;;;;5092627;28;20135;-60
2022/03/27 01:57:03;;;;;;;9.60;4.80;;;6.70;99.90;;;;;;5093606;28;20055;-59
2022/03/27 01:59:29;;;;;;;8.20;4.50;;;6.30;99.90;;;;;;5094187;28;20396;-60
2022/03/27 02:01:55;;;;;;;10.82;4.00;;;6.30;99.90;;;;;;5092226;28;20416;-60
2022/03/27 02:04:21;;;;;;;7.97;4.65;;;5.90;99.90;;;;;;5075803;28;20039;-60
2022/03/27 02:06:46;;;;;;;13.45;5.82;;;6.30;99.90;;;;;;5092900;28;20055;-60
2022/03/27 02:09:12;;;;;;;7.75;4.15;;;6.40;99.90;;;;;;5093185;28;20481;-59
2022/03/27 02:11:42;;;;;;;8.85;4.53;;;6.10;99.90;;;;;;5092919;28;20397;-59
2022/03/27 02:14:08;;;;;;;8.95;4.97;;;6.10;99.90;;;;;;5092845;28;20075;-59
2022/03/27 02:16:35;;;;;;;11.40;6.53;;;6.10;99.90;;;;;;5075261;28;20047;-60
2022/03/27 02:19:00;;;;;;;14.00;6.18;;;6.00;99.90;;;;;;5093592;28;20439;-60
2022/03/27 02:21:26;;;;;;;11.40;5.78;;;6.00;99.90;;;;;;5092374;28;20040;-60
2022/03/27 02:23:52;;;;;;;23.55;6.35;;;6.00;99.90;;;;;;5091702;28;20047;-60
2022/03/27 02:26:17;;;;;;;113.78;12.32;;;6.00;99.90;;;;;;5093347;28;20499;-60
2022/03/27 02:28:43;;;;;;;29.77;7.72;;;6.00;99.90;;;;;;5093354;28;20071;-60
2022/03/27 02:31:09;;;;;;;174.75;18.33;;;5.90;99.90;;;;;;5075064;28;20074;-60
2022/03/27 02:33:35;;;;;;;95.00;10.38;;;5.90;99.90;;;;;;5075757;28;20396;-60
2022/03/27 02:36:04;;;;;;;47.78;7.95;;;5.90;99.90;;;;;;5091558;28;20047;-60
2022/03/27 02:38:30;;;;;;;17.25;6.18;;;5.90;99.90;;;;;;5091221;28;20048;-59
2022/03/27 02:40:56;;;;;;;58.33;8.50;;;5.80;99.90;;;;;;5091858;28;20042;-60
2022/03/27 02:43:21;;;;;;;15.05;5.70;;;5.80;99.90;;;;;;5091842;28;20067;-60
2022/03/27 02:45:48;;;;;;;19.50;5.53;;;5.80;99.90;;;;;;5092504;28;20031;-59
2022/03/27 02:48:13;;;;;;;97.63;12.07;;;5.80;99.90;;;;;;5092063;28;20044;-60
2022/03/27 02:50:43;;;;;;;51.65;8.23;;;5.80;99.90;;;;;;5093338;28;20085;-60
2022/03/27 02:53:09;;;;;;;36.92;6.05;;;5.70;99.90;;;;;;5091246;28;20070;-59
2022/03/27 02:55:35;;;;;;;14.43;5.28;;;5.70;99.90;;;;;;5074933;28;20056;-60
2022/03/27 02:58:01;;;;;;;88.32;8.45;;;5.70;99.90;;;;;;5091779;28;20058;-60
2022/03/27 03:00:27;;;;;;;147.45;14.60;;;5.60;99.90;;;;;;5092284;28;20133;-59
2022/03/27 03:02:53;;;;;;;103.63;13.30;;;5.60;99.90;;;;;;5091363;28;20074;-60
2022/03/27 03:05:19;;;;;;;10.68;3.53;;;5.50;99.90;;;;;;5091785;28;20113;-60
2022/03/27 03:07:45;;;;;;;49.45;5.68;;;5.50;99.90;;;;;;5091349;28;20472;-60
2022/03/27 03:10:14;;;;;;;33.00;4.80;;;5.50;99.90;;;;;;5091501;28;20048;-60
2022/03/27 03:12:40;;;;;;;21.48;3.88;;;5.40;99.90;;;;;;5092081;28;20044;-60
2022/03/27 03:15:07;;;;;;;8.90;3.25;;;5.40;99.90;;;;;;5092776;28;20043;-59
2022/03/27 03:17:33;;;;;;;7.47;3.10;;;5.30;99.90;;;;;;5092668;28;20040;-60
2022/03/27 03:19:59;;;;;;;15.10;4.05;;;5.30;99.90;;;;;;5091931;28;20393;-59
2022/03/27 03:22:25;;;;;;;29.02;4.60;;;5.30;99.90;;;;;;5092191;28;20040;-60
2022/03/27 03:24:51;;;;;;;49.05;5.65;;;5.20;99.90;;;;;;5092320;28;20074;-60
2022/03/27 03:27:16;;;;;;;31.77;4.80;;;5.20;99.90;;;;;;5091906;28;20435;-60
2022/03/27 03:29:42;;;;;;;7.72;3.17;;;5.10;99.90;;;;;;5091205;28;20075;-60
2022/03/27 03:32:08;;;;;;;13.15;3.50;;;5.10;99.90;;;;;;5091078;28;20050;-60
2022/03/27 03:34:34;;;;;;;9.55;3.38;;;5.00;99.90;;;;;;5092222;28;20032;-60
2022/03/27 03:37:00;;;;;;;9.57;3.30;;;5.00;99.90;;;;;;5092325;28;20123;-60
2022/03/27 03:39:26;;;;;;;7.82;2.58;;;5.00;99.90;;;;;;5090750;28;20044;-60
2022/03/27 03:41:51;;;;;;;12.10;3.55;;;5.00;99.90;;;;;;5090647;28;20093;-60
2022/03/27 03:44:17;;;;;;;19.13;3.55;;;5.00;99.90;;;;;;5090827;28;20511;-60
2022/03/27 03:46:43;;;;;;;15.07;4.22;;;5.00;99.90;;;;;;5090742;28;20047;-60
2022/03/27 03:49:09;;;;;;;6.03;3.15;;;4.90;99.90;;;;;;5090339;28;20040;-60
2022/03/27 03:51:36;;;;;;;8.15;2.92;;;4.90;99.90;;;;;;5074212;28;20043;-60
2022/03/27 03:54:08;;;;;;;6.82;2.92;;;4.90;99.90;;;;;;5073615;28;20092;-60
2022/03/27 03:56:34;;;;;;;5.85;2.92;;;4.90;99.90;;;;;;5090604;28;20500;-59
2022/03/27 03:59:00;;;;;;;6.43;2.92;;;4.80;99.90;;;;;;5073813;28;20500;-59
2022/03/27 04:01:26;;;;;;;6.90;2.92;;;4.80;99.90;;;;;;5091831;28;20055;-60
2022/03/27 04:03:52;;;;;;;6.38;3.50;;;4.70;99.90;;;;;;5090476;28;20044;-60
2022/03/27 04:06:17;;;;;;;5.13;2.53;;;4.70;99.90;;;;;;5090749;28;20040;-60
2022/03/27 04:08:43;;;;;;;7.85;3.33;;;4.70;99.90;;;;;;5090108;28;20362;-59
2022/03/27 04:11:16;;;;;;;5.28;2.70;;;4.70;99.90;;;;;;5091912;28;20032;-60
2022/03/27 04:13:41;;;;;;;5.53;2.75;;;4.50;99.90;;;;;;5090562;28;20076;-60
2022/03/27 04:16:07;;;;;;;6.15;2.83;;;4.50;99.90;;;;;;5092154;28;20076;-59
2022/03/27 04:18:33;;;;;;;6.22;3.03;;;4.60;99.90;;;;;;5095053;28;20042;-59
2022/03/27 04:20:58;;;;;;;6.30;3.17;;;4.60;99.90;;;;;;5094538;28;20393;-60
2022/03/27 04:23:24;;;;;;;6.20;2.65;;;4.60;99.90;;;;;;5095229;28;20132;-59
2022/03/27 04:25:49;;;;;;;6.35;3.30;;;4.50;99.90;;;;;;5094649;28;20036;-60
2022/03/27 04:28:15;;;;;;;7.20;2.95;;;4.50;99.90;;;;;;5094217;28;20036;-59
2022/03/27 04:30:41;;;;;;;6.55;2.70;;;4.50;99.90;;;;;;5077125;28;20412;-60
2022/03/27 04:33:08;;;;;;;7.47;2.88;;;4.50;99.90;;;;;;5095908;28;20035;-59
2022/03/27 04:35:34;;;;;;;6.95;3.35;;;4.50;99.90;;;;;;5094662;28;20036;-59
2022/03/27 04:38:00;;;;;;;8.48;3.10;;;4.40;99.90;;;;;;5093893;28;20059;-60
2022/03/27 04:40:26;;;;;;;7.68;3.38;;;4.40;99.90;;;;;;5095598;28;20449;-60
2022/03/27 04:42:51;;;;;;;6.50;2.80;;;4.40;99.90;;;;;;5076982;28;20043;-59
2022/03/27 04:45:17;;;;;;;8.93;3.22;;;4.40;99.90;;;;;;5094764;28;20040;-60
2022/03/27 04:47:43;;;;;;;6.38;2.58;;;4.40;99.90;;;;;;5077366;28;20043;-60
2022/03/27 04:50:09;;;;;;;9.05;3.63;;;4.30;99.90;;;;;;5093799;28;20040;-60
2022/03/27 04:52:36;;;;;;;9.63;3.70;;;4.30;99.90;;;;;;5093963;28;20044;-59
2022/03/27 04:55:02;;;;;;;10.73;3.78;;;4.30;99.90;;;;;;5095063;28;20139;-60
2022/03/27 04:57:39;;;;;;;8.77;3.45;;;4.20;99.90;;;;;;5093748;28;20123;-60
2022/03/27 05:00:10;;;;;;;12.55;3.42;;;4.20;99.90;;;;;;5076873;28;20122;-59
2022/03/27 05:02:40;;;;;;;10.88;3.28;;;4.20;99.90;;;;;;5094077;28;20040;-60
2022/03/27 05:05:10;;;;;;;11.38;3.83;;;4.20;99.90;;;;;;5093212;28;20092;-60
2022/03/27 05:07:37;;;;;;;9.70;4.00;;;4.20;99.90;;;;;;5094202;28;20040;-60
2022/03/27 05:10:04;;;;;;;10.52;3.78;;;4.20;99.90;;;;;;5093696;28;20043;-59
2022/03/27 05:12:30;;;;;;;16.60;4.68;;;4.20;99.90;;;;;;5093348;28;20048;-60
2022/03/27 05:14:56;;;;;;;9.75;3.90;;;4.20;99.90;;;;;;5093837;28;20123;-60
2022/03/27 05:17:22;;;;;;;10.05;3.50;;;4.20;99.90;;;;;;5093376;28;20043;-60
2022/03/27 05:19:47;;;;;;;8.77;3.53;;;4.20;99.90;;;;;;5093169;28;20105;-59
2022/03/27 05:22:13;;;;;;;13.30;4.55;;;4.20;99.90;;;;;;5094715;28;20036;-59
2022/03/27 05:24:39;;;;;;;11.50;3.67;;;4.20;99.90;;;;;;5094720;28;20508;-59
2022/03/27 05:27:05;;;;;;;12.05;3.78;;;4.20;99.90;;;;;;5075747;28;20040;-59
2022/03/27 05:29:31;;;;;;;15.35;3.97;;;4.40;99.90;;;;;;5094777;28;20044;-59
2022/03/27 05:31:57;;;;;;;12.63;4.93;;;4.10;99.90;;;;;;5093386;28;20388;-60
2022/03/27 05:34:23;;;;;;;12.55;4.68;;;4.20;99.90;;;;;;5092585;28;20507;-60
2022/03/27 05:36:49;;;;;;;11.68;4.07;;;4.10;99.90;;;;;;5093365;28;20506;-59
2022/03/27 05:39:14;;;;;;;17.02;4.57;;;4.10;99.90;;;;;;5092975;28;20115;-59
2022/03/27 05:41:40;;;;;;;12.50;4.45;;;4.10;99.90;;;;;;5092653;28;20073;-60
2022/03/27 05:44:06;;;;;;;13.60;4.28;;;4.20;99.90;;;;;;5093192;28;20093;-59
2022/03/27 05:46:31;;;;;;;17.85;5.05;;;4.20;99.90;;;;;;5092815;28;20481;-59
2022/03/27 05:48:57;;;;;;;14.65;6.65;;;4.20;99.90;;;;;;5092283;28;20036;-59
2022/03/27 05:51:22;;;;;;;20.30;9.02;;;4.10;99.90;;;;;;5076029;28;20453;-59
2022/03/27 05:53:48;;;;;;;15.73;6.50;;;4.40;99.90;;;;;;5092702;28;20538;-60
2022/03/27 05:56:14;;;;;;;19.63;8.15;;;4.10;99.90;;;;;;5092372;28;20105;-59
2022/03/27 05:58:39;;;;;;;14.90;5.53;;;4.20;99.90;;;;;;5092903;28;20055;-60
2022/03/27 06:01:05;;;;;;;19.52;6.13;;;4.20;99.90;;;;;;5093528;28;20067;-60
2022/03/27 06:03:32;;;;;;;16.02;5.45;;;4.30;99.90;;;;;;5076010;28;20501;-60
2022/03/27 06:05:57;;;;;;;14.98;5.03;;;4.20;99.90;;;;;;5092933;28;20423;-59
2022/03/27 06:08:23;;;;;;;17.35;4.85;;;4.30;99.90;;;;;;5092196;28;20093;-60
2022/03/27 06:10:49;;;;;;;15.82;4.70;;;4.30;99.90;;;;;;5092576;28;20399;-60
2022/03/27 06:13:16;;;;;;;10.98;4.65;;;4.40;99.90;;;;;;5092490;28;20389;-59
2022/03/27 06:15:42;;;;;;;16.90;4.95;;;4.40;99.90;;;;;;5093035;28;20048;-59
2022/03/27 06:18:11;;;;;;;14.27;5.30;;;4.40;99.90;;;;;;5093658;28;20085;-59
2022/03/27 06:20:37;;;;;;;21.00;6.45;;;4.50;99.90;;;;;;5093641;28;20051;-59
2022/03/27 06:23:03;;;;;;;24.98;7.68;;;4.50;99.90;;;;;;5091650;28;20492;-60
2022/03/27 06:25:29;;;;;;;17.95;5.90;;;4.60;99.90;;;;;;5092401;28;20039;-59
2022/03/27 06:27:56;;;;;;;24.58;8.65;;;4.70;99.90;;;;;;5092252;28;20039;-59
2022/03/27 06:30:24;;;;;;;24.13;7.80;;;4.80;99.90;;;;;;5091747;28;20124;-60
2022/03/27 06:32:53;;;;;;;23.63;7.85;;;4.90;99.90;;;;;;5075436;28;20067;-60
2022/03/27 06:35:21;;;;;;;26.05;7.15;;;5.10;99.90;;;;;;5092129;28;20058;-60
2022/03/27 06:37:47;;;;;;;24.45;8.35;;;5.20;99.90;;;;;;5092852;28;20054;-59
2022/03/27 06:40:14;;;;;;;23.75;6.20;;;5.30;99.90;;;;;;5091569;28;20036;-60
2022/03/27 06:42:41;;;;;;;28.35;7.78;;;5.40;99.90;;;;;;5074753;28;20123;-59
2022/03/27 06:45:07;;;;;;;32.63;7.30;;;5.50;99.90;;;;;;5091433;28;20040;-60
2022/03/27 06:47:33;;;;;;;22.25;6.03;;;5.60;99.90;;;;;;5093403;28;20507;-60
2022/03/27 06:50:02;;;;;;;29.33;7.60;;;5.90;99.90;;;;;;5091384;28;20040;-60
2022/03/27 06:52:28;;;;;;;22.77;6.82;;;5.80;99.90;;;;;;5091137;28;20039;-60
2022/03/27 06:54:55;;;;;;;25.13;8.02;;;5.90;99.90;;;;;;5094296;28;20082;-60
2022/03/27 06:57:21;;;;;;;30.85;8.07;;;6.30;99.90;;;;;;5112570;28;20040;-60
2022/03/27 07:05:16;;;;;;;32.70;7.85;;;6.20;99.90;;;;;;5112666;27;20047;-60
2022/03/27 07:07:42;;;;;;;37.45;7.10;;;6.30;99.90;;;;;;5106296;28;20036;-60
2022/03/27 07:10:09;;;;;;;34.28;8.18;;;6.40;99.90;;;;;;5085117;28;20370;-60
2022/03/27 07:12:34;;;;;;;30.00;7.13;;;6.60;99.90;;;;;;5091237;28;20130;-60
2022/03/27 07:15:00;;;;;;;32.85;7.80;;;6.60;99.90;;;;;;5107795;28;20122;-60
2022/03/27 07:17:26;;;;;;;30.23;8.20;;;6.80;99.90;;;;;;5106541;28;20556;-60
2022/03/27 07:19:52;;;;;;;27.92;7.38;;;6.80;99.90;;;;;;5111218;28;20031;-60
2022/03/27 07:22:18;;;;;;;30.45;9.38;;;6.90;99.90;;;;;;5112849;28;20044;-60
2022/03/27 07:24:46;;;;;;;28.67;7.70;;;;;;;;;;5108812;28;20092;-60
2022/03/27 07:27:12;;;;;;;32.08;7.85;;;;;;;;;;5106280;28;20042;-61
2022/03/27 07:29:39;;;;;;;34.95;7.38;;;;;;;;;;5105434;28;20100;-60
2022/03/27 07:32:05;;;;;;;29.73;7.03;;;;;;;;;;5109241;28;20552;-61
2022/03/27 07:34:32;;;;;;;24.08;6.80;;;;;;;;;;5108669;28;20082;-60
2022/03/27 07:36:58;;;;;;;37.85;7.78;;;7.60;99.90;;;;;;5109968;28;20043;-60
2022/03/27 07:39:24;;;;;;;26.02;8.35;;;;;;;;;;5110489;28;20042;-60
2022/03/27 07:41:50;;;;;;;29.50;7.45;;;;;;;;;;5088843;28;20476;-60
2022/03/27 07:44:16;;;;;;;30.15;8.43;;;;;;;;;;5105946;28;20146;-60
2022/03/27 07:46:42;;;;;;;30.35;7.80;;;;;;;;;;5097676;28;20035;-60
2022/03/27 07:49:09;;;;;;;27.10;7.43;;;;;;;;;;5094621;28;20110;-60
2022/03/27 07:51:36;;;;;;;41.08;9.20;;;;;;;;;;5096893;28;20400;-60
2022/03/27 07:54:03;;;;;;;24.67;7.57;;;;;;;;;;5090880;28;20060;-60
2022/03/27 07:56:32;;;;;;;30.15;7.55;;;8.30;99.90;;;;;;5108531;28;20047;-60
2022/03/27 07:58:57;;;;;;;25.48;6.50;;;8.40;99.90;;;;;;5091762;28;20569;-61
2022/03/27 08:01:23;;;;;;;22.60;6.78;;;8.40;99.90;;;;;;5089369;28;20040;-60
2022/03/27 08:03:56;;;;;;;33.08;8.30;;;8.30;99.90;;;;;;5097564;28;20118;-60
2022/03/27 08:06:24;;;;;;;28.67;7.88;;;8.70;99.90;;;;;;5101224;28;20042;-60
2022/03/27 08:08:50;;;;;;;28.33;7.60;;;8.60;99.90;;;;;;5095113;28;20039;-60
2022/03/27 08:11:16;;;;;;;24.27;6.47;;;8.60;99.90;;;;;;5097912;28;20135;-62
2022/03/27 08:13:43;;;;;;;29.23;7.07;;;8.70;99.90;;;;;;5108550;28;20028;-60
2022/03/27 08:16:09;;;;;;;31.98;7.75;;;;;;;;;;5091437;28;20054;-60
2022/03/27 08:18:39;;;;;;;33.47;8.85;;;;;;;;;;5108243;28;20039;-60
2022/03/27 08:21:05;;;;;;;28.08;8.43;;;;;;;;;;5094170;28;20128;-60
2022/03/27 08:23:31;;;;;;;33.95;8.88;;;;;;;;;;5104205;28;20082;-60
2022/03/27 08:28:43;;;;;;;28.30;8.52;;;;;;;;;;5107593;28;20488;-61
2022/03/27 08:31:09;;;;;;;25.23;6.88;;;;;;;;;;5105400;28;20051;-61
2022/03/27 08:33:35;;;;;;;32.92;8.80;;;;;;;;;;5071478;28;20038;-61
2022/03/27 08:36:01;;;;;;;22.70;7.45;;;;;;;;;;5099690;28;20035;-61
2022/03/27 08:38:27;;;;;;;25.60;6.45;;;;;;;;;;5108520;28;20051;-61
2022/03/27 08:40:55;;;;;;;20.52;7.80;;;;;;;;;;5101285;28;20098;-62
2022/03/27 08:43:21;;;;;;;20.20;6.47;;;;;;;;;;5106708;28;20117;-62
2022/03/27 08:45:47;;;;;;;47.08;8.70;;;;;;;;;;5097109;28;20502;-61
2022/03/27 08:48:14;;;;;;;36.60;8.13;;;;;;;;;;5106643;28;20126;-61
2022/03/27 08:51:04;;;;;;;25.48;8.23;;;9.70;99.90;;;;;;5103659;28;20027;-61
2022/03/27 08:53:38;;;;;;;30.83;9.57;;;9.70;99.90;;;;;;5105048;28;20500;-62
2022/03/27 08:56:07;;;;;;;26.33;7.05;;;9.50;99.90;;;;;;5101494;28;20047;-61
2022/03/27 08:58:37;;;;;;;20.58;6.68;;;9.90;99.90;;;;;;5102521;28;20047;-61
2022/03/27 09:01:04;;;;;;;26.48;7.80;;;9.50;99.90;;;;;;5102926;28;20063;-61
2022/03/27 09:03:33;;;;;;;26.77;8.07;;;10.00;99.90;;;;;;5098224;28;20564;-61
2022/03/27 09:06:00;;;;;;;24.48;7.47;;;9.60;99.90;;;;;;5106959;28;20043;-61
2022/03/27 09:08:26;;;;;;;32.70;9.25;;;9.70;99.90;;;;;;5098710;28;20405;-61
2022/03/27 09:10:51;;;;;;;25.90;8.27;;;9.60;99.90;;;;;;5104663;28;20036;-61
2022/03/27 09:13:18;;;;;;;28.25;7.82;;;9.50;99.90;;;;;;5110129;28;20122;-61
2022/03/27 09:15:55;;;;;;;28.33;9.38;;;9.60;99.90;;;;;;5085660;28;20040;-61
2022/03/27 09:18:21;;;;;;;22.05;8.75;;;10.50;99.90;;;;;;5079426;28;20051;-61
2022/03/27 09:20:51;;;;;;;20.85;8.70;;;10.10;99.90;;;;;;5108119;28;20031;-62
2022/03/27 09:23:25;;;;;;;24.88;8.38;;;9.80;99.90;;;;;;5077655;28;20039;-61
2022/03/27 09:25:57;;;;;;;18.42;6.65;;;9.80;99.90;;;;;;5077452;28;20048;-61
2022/03/27 09:28:32;;;;;;;26.80;8.85;;;9.60;99.90;;;;;;5109062;28;20403;-61
2022/03/27 09:31:22;;;;;;;26.92;8.38;;;9.80;99.90;;;;;;5107258;28;20096;-61
2022/03/27 09:34:02;;;;;;;27.33;8.60;;;9.70;99.90;;;;;;5100528;28;20575;-61
2022/03/27 09:36:33;;;;;;;21.60;7.25;;;9.70;99.90;;;;;;5099937;28;20065;-61
2022/03/27 09:39:01;;;;;;;25.98;7.85;;;10.00;99.90;;;;;;5095547;28;20177;-61
2022/03/27 09:41:34;;;;;;;20.60;7.05;;;9.70;99.90;;;;;;5100297;28;20748;-61
2022/03/27 09:44:09;;;;;;;20.45;7.90;;;9.90;99.90;;;;;;5109352;28;20048;-61
2022/03/27 09:46:52;;;;;;;19.08;5.97;;;9.70;99.90;;;;;;5110279;28;20035;-61
2022/03/27 09:49:20;;;;;;;25.45;7.60;;;10.40;99.90;;;;;;5111409;28;20131;-61
2022/03/27 09:51:54;;;;;;;21.63;6.93;;;9.80;99.90;;;;;;5104685;28;20038;-61
2022/03/27 09:54:21;;;;;;;28.15;7.93;;;10.20;99.90;;;;;;5105958;28;20052;-59
2022/03/27 09:56:48;;;;;;;22.27;6.70;;;10.40;99.90;;;;;;5105865;28;20139;-60
2022/03/27 09:59:28;;;;;;;21.80;7.63;;;9.70;99.90;;;;;;5110300;28;20150;-60
2022/03/27 10:01:54;;;;;;;23.52;6.95;;;10.00;99.90;;;;;;5109875;28;20495;-60
2022/03/27 10:04:20;;;;;;;20.90;7.15;;;10.20;99.90;;;;;;5109456;28;20124;-60
2022/03/27 10:06:46;;;;;;;18.70;6.15;;;;;;;;;;5110019;28;20160;-59
2022/03/27 10:09:12;;;;;;;20.35;7.05;;;9.90;99.90;;;;;;5107091;28;20042;-60
2022/03/27 10:11:41;;;;;;;17.10;6.57;;;10.30;99.90;;;;;;5108573;28;20050;-60
2022/03/27 10:14:07;;;;;;;17.90;6.50;;;;;;;;;;5102867;28;20052;-60
2022/03/27 10:16:34;;;;;;;18.17;6.63;;;;;;;;;;5103680;28;20036;-60
2022/03/27 10:19:13;;;;;;;16.45;6.13;;;;;;;;;;5092315;28;20047;-60
2022/03/27 10:21:42;;;;;;;14.13;5.22;;;;;;;;;;5090915;28;20652;-62
2022/03/27 10:24:08;;;;;;;17.60;6.00;;;;;;;;;;5089932;28;20040;-62
2022/03/27 10:26:34;;;;;;;19.45;5.38;;;;;;;;;;5074569;28;20040;-61
2022/03/27 10:29:05;;;;;;;19.63;5.65;;;;;;;;;;5109539;28;20055;-62
2022/03/27 10:31:31;;;;;;;19.15;6.82;;;;;;;;;;5100661;28;20036;-62
2022/03/27 10:34:00;;;;;;;23.30;6.63;;;;;;;;;;5097616;28;20036;-61
2022/03/27 10:36:48;;;;;;;13.85;4.32;;;11.00;99.90;;;;;;5088935;28;20048;-61
2022/03/27 10:39:35;;;;;;;18.52;5.63;;;;;;;;;;5095704;28;20519;-61
2022/03/27 10:42:25;;;;;;;20.17;5.63;;;11.00;99.90;;;;;;5109194;28;20423;-61
2022/03/27 10:45:00;;;;;;;17.58;4.60;;;11.10;99.90;;;;;;5099827;28;20488;-61
2022/03/27 10:47:29;;;;;;;12.60;4.47;;;11.30;99.90;;;;;;5104238;28;20036;-61
2022/03/27 10:50:01;;;;;;;18.98;5.45;;;11.40;99.90;;;;;;5108529;28;20047;-61
2022/03/27 10:52:31;;;;;;;14.20;5.93;;;11.70;99.90;;;;;;5106821;28;20190;-61
2022/03/27 10:55:06;;;;;;;14.73;4.95;;;11.10;99.90;;;;;;5091545;28;20109;-61
2022/03/27 10:57:49;;;;;;;13.80;3.83;;;11.40;99.90;;;;;;5103790;28;20039;-61
2022/03/27 11:00:23;;;;;;;18.00;4.03;;;;;;;;;;5076675;28;20071;-61
2022/03/27 11:02:50;;;;;;;19.02;5.10;;;;;;;;;;5108521;28;20043;-61
2022/03/27 11:05:37;;;;;;;13.43;4.78;;;;;;;;;;5109129;28;20048;-61
2022/03/27 11:08:18;;;;;;;15.55;4.72;;;;;;;;;;5109506;28;20039;-61
2022/03/27 11:10:49;;;;;;;16.58;5.38;;;;;;;;;;5107936;28;20038;-61
2022/03/27 11:13:31;;;;;;;11.93;3.95;;;;;;;;;;5108148;28;20074;-61
2022/03/27 11:16:13;;;;;;;10.93;3.38;;;;;;;;;;5102196;27;20036;-61
2022/03/27 11:18:40;;;;;;;12.20;3.72;;;;;;;;;;5104828;28;20078;-61
2022/03/27 11:21:07;;;;;;;20.55;4.80;;;;;;;;;;5107264;28;20054;-61
2022/03/27 11:23:37;;;;;;;14.88;3.88;;;14.10;99.90;;;;;;5092010;28;20051;-61
2022/03/27 11:26:24;;;;;;;11.20;3.90;;;11.80;99.90;;;;;;5092583;28;20042;-61
2022/03/27 11:29:05;;;;;;;12.25;3.58;;;11.90;99.90;;;;;;5099308;28;20054;-61
2022/03/27 11:31:35;;;;;;;15.90;3.92;;;11.80;99.90;;;;;;5088036;28;20039;-61
2022/03/27 11:34:04;;;;;;;10.35;3.03;;;12.30;99.90;;;;;;5096906;28;20063;-61
2022/03/27 11:36:31;;;;;;;12.88;3.33;;;12.20;99.90;;;;;;5103720;28;20515;-61
2022/03/27 11:39:04;;;;;;;9.60;3.65;;;;;;;;;;5103662;28;20040;-61
2022/03/27 11:41:45;;;;;;;16.17;4.10;;;12.20;99.90;;;;;;5096623;28;20044;-61
2022/03/27 11:44:22;;;;;;;12.88;3.15;;;12.00;99.90;;;;;;5092993;28;20072;-61
2022/03/27 11:46:51;;;;;;;11.85;3.67;;;12.20;99.90;;;;;;5107480;28;20568;-61
2022/03/27 11:49:18;;;;;;;14.90;3.80;;;12.80;99.90;;;;;;5109319;28;20118;-61
2022/03/27 11:51:44;;;;;;;15.48;3.28;;;12.30;99.90;;;;;;5106704;28;20075;-61
2022/03/27 11:54:21;;;;;;;9.90;3.50;;;12.40;99.90;;;;;;5105317;28;20090;-61
2022/03/27 11:56:59;;;;;;;13.63;4.25;;;12.90;99.90;;;;;;5106206;28;20043;-61
2022/03/27 11:59:26;;;;;;;9.35;3.72;;;12.50;99.90;;;;;;5098202;28;20040;-61
2022/03/27 12:01:57;;;;;;;17.08;3.50;;;12.40;99.90;;;;;;5092526;28;20696;-61
2022/03/27 12:04:23;;;;;;;11.38;3.47;;;12.40;99.90;;;;;;5087983;28;20110;-61
2022/03/27 12:07:00;;;;;;;10.52;3.20;;;12.40;99.90;;;;;;5107404;28;20118;-60
2022/03/27 12:09:27;;;;;;;16.30;4.00;;;12.50;99.90;;;;;;5108956;28;20100;-61
2022/03/27 12:12:13;;;;;;;11.80;3.17;;;13.00;99.90;;;;;;5106917;28;20544;-61
2022/03/27 12:15:05;;;;;;;15.15;3.60;;;12.70;99.90;;;;;;5103544;28;20042;-61
2022/03/27 12:17:32;;;;;;;14.82;3.72;;;12.90;99.90;;;;;;5096503;28;20368;-61
2022/03/27 12:20:06;;;;;;;14.15;3.75;;;12.60;99.90;;;;;;5097892;28;20042;-61
2022/03/27 12:22:42;;;;;;;16.97;3.57;;;12.80;99.90;;;;;;5090276;28;20050;-61
2022/03/27 12:25:21;;;;;;;12.18;3.13;;;12.90;99.90;;;;;;5074444;28;20044;-61
2022/03/27 12:30:50;;;;;;;16.95;3.85;;;13.50;99.90;;;;;;5090524;28;20040;-61
2022/03/27 12:33:23;;;;;;;15.27;4.78;;;13.30;99.90;;;;;;5091403;28;20498;-61
2022/03/27 12:36:05;;;;;;;15.88;4.25;;;13.60;99.90;;;;;;5091103;28;20131;-61
2022/03/27 12:38:32;;;;;;;15.32;3.97;;;13.10;99.90;;;;;;5095382;28;20374;-61
2022/03/27 12:40:58;;;;;;;15.02;4.75;;;13.90;99.90;;;;;;5095580;28;20044;-61
2022/03/27 12:43:24;;;;;;;17.70;4.47;;;;;;;;;;5093707;28;20503;-61
2022/03/27 12:45:51;;;;;;;15.57;4.15;;;13.10;99.90;;;;;;5095522;28;20040;-61
2022/03/27 12:48:20;;;;;;;20.50;4.95;;;13.10;99.90;;;;;;5095100;28;20039;-61
2022/03/27 12:50:54;;;;;;;20.70;4.20;;;13.70;99.90;;;;;;5076973;28;20051;-61
2022/03/27 12:53:22;;;;;;;16.73;4.35;;;13.20;99.90;;;;;;5093991;28;20054;-61
2022/03/27 12:56:09;;;;;;;11.85;4.28;;;13.10;99.90;;;;;;5095266;28;20581;-61
2022/03/27 12:58:37;;;;;;;11.90;3.58;;;;;;;;;;5094498;28;20051;-61
2022/03/27 13:01:10;;;;;;;17.05;4.07;;;;;;;;;;5093752;28;20075;-61
2022/03/27 13:03:37;;;;;;;13.80;3.50;;;;;;;;;;5094962;28;20062;-61
2022/03/27 13:06:05;;;;;;;11.73;3.40;;;;;;;;;;5093994;28;20488;-61
2022/03/27 13:08:41;;;;;;;11.77;3.10;;;;;;;;;;5076991;28;20047;-61
2022/03/27 13:11:07;;;;;;;21.25;5.78;;;;;;;;;;5076548;28;20043;-61
2022/03/27 13:13:43;;;;;;;10.35;3.13;;;;;;;;;;5094157;28;20488;-61
2022/03/27 13:16:28;;;;;;;16.02;4.25;;;;;;;;;;5094850;28;20039;-61
2022/03/27 13:19:00;;;;;;;16.77;5.15;;;;;;;;;;5094368;28;20093;-61
2022/03/27 13:21:26;;;;;;;9.43;2.83;;;;;;;;;;5094673;28;20082;-61
2022/03/27 13:23:52;;;;;;;12.45;3.47;;;;;;;;;;5094670;28;20047;-61